createdAt,value
2023-05-20T00:02:16.088Z,19.42
2023-05-20T00:04:44.041Z,18.27
2023-05-20T00:07:10.997Z,20.58
2023-05-20T00:09:39.386Z,22.65
2023-05-20T00:12:06.569Z,22.85
2023-05-20T00:14:33.371Z,23.30
2023-05-20T00:17:00.236Z,23.00
2023-05-20T00:19:27.125Z,21.52
2023-05-20T00:21:53.940Z,25.17
2023-05-20T00:24:20.694Z,22.50
2023-05-20T00:26:47.489Z,22.58
2023-05-20T00:29:14.311Z,21.85
2023-05-20T00:31:41.290Z,22.27
2023-05-20T00:34:08.823Z,23.67
2023-05-20T00:36:36.087Z,21.98
2023-05-20T00:39:03.024Z,22.38
2023-05-20T00:41:29.873Z,23.45
2023-05-20T00:43:57.433Z,19.98
2023-05-20T00:46:26.714Z,23.08
2023-05-20T00:48:54.114Z,22.13
2023-05-20T00:51:21.647Z,22.52
2023-05-20T00:53:48.979Z,22.95
2023-05-20T00:56:15.842Z,20.40
2023-05-20T00:58:42.791Z,23.27
2023-05-20T01:01:09.564Z,22.10
2023-05-20T01:03:36.478Z,22.50
2023-05-20T01:06:04.679Z,22.17
2023-05-20T01:08:32.392Z,21.30
2023-05-20T01:11:06.667Z,21.23
2023-05-20T01:13:39.750Z,21.60
2023-05-20T01:16:09.309Z,20.40
2023-05-20T01:18:37.681Z,21.15
2023-05-20T01:21:07.552Z,19.27
2023-05-20T01:26:06.422Z,18.73
2023-05-20T01:28:39.441Z,19.42
2023-05-20T01:31:14.676Z,20.63
2023-05-20T01:33:43.217Z,21.42
2023-05-20T01:36:11.202Z,20.40
2023-05-20T01:38:39.595Z,21.25
2023-05-20T01:41:07.509Z,19.80
2023-05-20T01:43:35.078Z,19.98
2023-05-20T01:46:03.203Z,20.05
2023-05-20T01:48:30.205Z,20.40
2023-05-20T01:50:57.366Z,21.10
2023-05-20T01:53:24.197Z,21.48
2023-05-20T01:55:51.195Z,20.05
2023-05-20T01:58:17.968Z,19.27
2023-05-20T02:00:44.765Z,19.52
2023-05-20T02:03:11.712Z,17.88
2023-05-20T02:05:38.749Z,20.20
2023-05-20T02:08:08.644Z,19.90
2023-05-20T02:10:35.519Z,19.05
2023-05-20T02:13:02.330Z,21.77
2023-05-20T02:15:29.065Z,21.48
2023-05-20T02:17:58.317Z,20.45
2023-05-20T02:20:25.210Z,21.08
2023-05-20T02:22:51.989Z,23.52
2023-05-20T02:25:18.862Z,20.80
2023-05-20T02:27:45.689Z,20.40
2023-05-20T02:30:12.883Z,22.17
2023-05-20T02:32:39.650Z,22.55
2023-05-20T02:35:08.668Z,21.90
2023-05-20T02:37:35.472Z,22.07
2023-05-20T02:40:02.334Z,20.50
2023-05-20T02:42:29.089Z,22.98
2023-05-20T02:44:58.656Z,19.90
2023-05-20T02:47:25.986Z,19.77
2023-05-20T02:49:53.259Z,17.50
2023-05-20T02:52:20.567Z,17.13
2023-05-20T02:54:47.620Z,16.45
2023-05-20T02:57:14.364Z,18.02
2023-05-20T02:59:41.102Z,18.20
2023-05-20T03:02:08.224Z,17.20
2023-05-20T03:04:38.740Z,15.40
2023-05-20T03:07:09.242Z,15.48
2023-05-20T03:09:36.204Z,15.80
2023-05-20T03:12:03.592Z,15.00
2023-05-20T03:14:30.356Z,14.77
2023-05-20T03:16:57.193Z,14.10
2023-05-20T03:19:24.167Z,15.32
2023-05-20T03:21:51.137Z,15.25
2023-05-20T03:24:18.279Z,15.02
2023-05-20T03:26:46.562Z,14.70
2023-05-20T03:29:13.402Z,14.20
2023-05-20T03:31:40.380Z,12.77
2023-05-20T03:34:08.392Z,12.95
2023-05-20T03:36:35.262Z,12.93
2023-05-20T03:39:02.217Z,12.95
2023-05-20T03:41:30.850Z,14.15
2023-05-20T03:43:57.604Z,13.27
2023-05-20T03:46:24.337Z,14.38
2023-05-20T03:48:51.243Z,14.20
2023-05-20T03:51:17.954Z,13.68
2023-05-20T03:53:44.697Z,14.80
2023-05-20T03:56:11.712Z,13.95
2023-05-20T03:58:38.906Z,13.98
2023-05-20T04:01:05.922Z,12.70
2023-05-20T04:03:32.856Z,14.38
2023-05-20T04:05:59.733Z,11.80
2023-05-20T04:08:26.533Z,12.85
2023-05-20T04:10:57.487Z,13.38
2023-05-20T04:13:25.711Z,12.70
2023-05-20T04:15:53.333Z,10.38
2023-05-20T04:20:47.502Z,11.60
2023-05-20T04:23:15.224Z,10.20
2023-05-20T04:25:42.340Z,11.00
2023-05-20T04:28:10.844Z,10.65
2023-05-20T04:30:37.668Z,10.43
2023-05-20T04:33:04.599Z,10.68
2023-05-20T04:35:31.609Z,10.98
2023-05-20T04:37:58.516Z,11.68
2023-05-20T04:40:25.292Z,11.27
2023-05-20T04:42:52.088Z,10.45
2023-05-20T04:45:18.945Z,9.35
2023-05-20T04:47:46.165Z,13.77
2023-05-20T04:50:13.712Z,12.32
2023-05-20T04:52:43.258Z,10.27
2023-05-20T04:55:10.773Z,9.70
2023-05-20T04:57:42.019Z,9.63
2023-05-20T05:00:12.769Z,11.25
2023-05-20T05:02:40.214Z,10.85
2023-05-20T05:05:08.298Z,9.48
2023-05-20T05:07:35.228Z,8.60
2023-05-20T05:10:02.097Z,9.05
2023-05-20T05:12:28.930Z,9.40
2023-05-20T05:14:58.905Z,10.13
2023-05-20T05:17:25.874Z,9.20
2023-05-20T05:19:52.708Z,9.75
2023-05-20T05:22:19.993Z,9.48
2023-05-20T05:24:46.707Z,10.07
2023-05-20T05:27:13.465Z,8.73
2023-05-20T05:29:40.308Z,9.38
2023-05-20T05:32:07.638Z,8.68
2023-05-20T05:34:34.398Z,8.00
2023-05-20T05:37:01.437Z,8.40
2023-05-20T05:39:28.254Z,9.02
2023-05-20T05:41:56.327Z,9.23
2023-05-20T05:44:23.477Z,9.35
2023-05-20T05:46:50.252Z,9.93
2023-05-20T05:49:17.183Z,10.18
2023-05-20T05:51:43.941Z,11.40
2023-05-20T05:54:11.225Z,10.48
2023-05-20T05:56:37.982Z,11.25
2023-05-20T05:59:05.641Z,10.20
2023-05-20T06:01:32.572Z,10.13
2023-05-20T06:03:59.756Z,10.13
2023-05-20T06:06:26.895Z,9.80
2023-05-20T06:08:53.867Z,10.20
2023-05-20T06:11:21.861Z,11.35
2023-05-20T06:13:50.990Z,11.52
2023-05-20T06:16:17.952Z,11.55
2023-05-20T06:18:47.164Z,10.88
2023-05-20T06:21:13.916Z,11.07
2023-05-20T06:23:40.820Z,11.10
2023-05-20T06:26:07.761Z,11.23
2023-05-20T06:28:34.688Z,12.68
2023-05-20T06:31:01.566Z,11.23
2023-05-20T06:33:29.876Z,11.07
2023-05-20T06:35:58.565Z,10.87
2023-05-20T06:38:25.399Z,11.13
2023-05-20T06:40:53.102Z,10.98
2023-05-20T06:43:19.972Z,12.40
2023-05-20T06:45:46.829Z,11.80
2023-05-20T06:48:13.630Z,11.07
2023-05-20T06:50:40.573Z,11.55
2023-05-20T06:53:07.363Z,11.23
2023-05-20T06:55:36.107Z,11.43
2023-05-20T06:58:03.109Z,10.73
2023-05-20T07:00:29.948Z,12.15
2023-05-20T07:02:56.809Z,12.13
2023-05-20T07:05:24.751Z,12.23
2023-05-20T07:07:51.764Z,12.70
2023-05-20T07:10:19.833Z,12.48
2023-05-20T07:12:47.853Z,12.40
2023-05-20T07:15:14.867Z,13.65
2023-05-20T07:17:41.675Z,12.45
2023-05-20T07:20:09.319Z,12.65
2023-05-20T07:22:36.164Z,11.93
2023-05-20T07:25:03.735Z,11.60
2023-05-20T07:27:30.603Z,11.88
2023-05-20T07:29:57.364Z,12.73
2023-05-20T07:32:25.268Z,12.23
2023-05-20T07:34:52.212Z,12.60
2023-05-20T07:37:19.373Z,11.85
2023-05-20T07:39:48.146Z,12.10
2023-05-20T07:42:15.012Z,12.45
2023-05-20T07:44:41.893Z,13.02
2023-05-20T07:47:09.360Z,13.23
2023-05-20T07:49:36.142Z,11.68
2023-05-20T07:52:03.249Z,13.27
2023-05-20T07:54:30.329Z,13.05
2023-05-20T07:56:57.095Z,13.55
2023-05-20T07:59:24.468Z,13.00
2023-05-20T08:01:51.267Z,13.27
2023-05-20T08:04:18.179Z,12.65
2023-05-20T08:06:45.517Z,13.32
2023-05-20T08:09:12.278Z,13.73
2023-05-20T08:11:39.029Z,13.77
2023-05-20T08:14:06.357Z,13.90
2023-05-20T08:16:33.196Z,14.82
2023-05-20T08:19:00.230Z,14.85
2023-05-20T08:21:27.654Z,14.23
2023-05-20T08:23:54.509Z,13.68
2023-05-20T08:26:22.147Z,13.88
2023-05-20T08:28:48.899Z,15.13
2023-05-20T08:31:28.738Z,13.63
2023-05-20T08:33:55.608Z,14.30
2023-05-20T08:36:24.392Z,15.38
2023-05-20T08:38:52.935Z,14.60
2023-05-20T08:41:27.971Z,14.85
2023-05-20T08:44:03.762Z,14.68
2023-05-20T08:46:34.568Z,13.48
2023-05-20T08:49:01.733Z,15.15
2023-05-20T08:51:29.618Z,14.68
2023-05-20T08:53:56.331Z,13.77
2023-05-20T08:56:23.781Z,14.60
2023-05-20T08:58:50.656Z,14.30
2023-05-20T09:01:18.167Z,15.02
2023-05-20T09:03:45.018Z,14.55
2023-05-20T09:06:20.361Z,15.05
2023-05-20T09:08:51.417Z,14.75
2023-05-20T09:11:18.203Z,13.68
2023-05-20T09:13:45.307Z,13.60
2023-05-20T09:16:12.265Z,14.18
2023-05-20T09:18:40.399Z,13.00
2023-05-20T09:21:07.660Z,12.73
2023-05-20T09:23:38.001Z,11.82
2023-05-20T09:26:04.838Z,13.05
2023-05-20T09:28:31.865Z,15.48
2023-05-20T09:31:00.057Z,14.00
2023-05-20T09:33:30.633Z,14.73
2023-05-20T09:36:10.689Z,14.05
2023-05-20T09:38:39.940Z,15.63
2023-05-20T09:43:37.706Z,15.13
2023-05-20T09:46:05.938Z,15.40
2023-05-20T09:48:34.307Z,15.20
2023-05-20T09:51:02.708Z,16.95
2023-05-20T09:53:31.210Z,15.55
2023-05-20T09:55:59.556Z,16.52
2023-05-20T09:58:27.375Z,16.40
2023-05-20T10:00:54.174Z,16.60
2023-05-20T10:03:28.685Z,16.23
2023-05-20T10:06:24.508Z,15.60
2023-05-20T10:08:55.743Z,15.55
2023-05-20T10:12:02.449Z,17.08
2023-05-20T10:14:31.913Z,15.05
2023-05-20T10:19:38.668Z,15.43
2023-05-20T10:22:10.182Z,15.88
2023-05-20T10:24:38.727Z,14.77
2023-05-20T10:27:09.446Z,15.02
2023-05-20T10:29:50.998Z,13.55
2023-05-20T10:32:31.726Z,13.60
2023-05-20T10:35:09.399Z,13.88
2023-05-20T10:37:44.458Z,14.90
2023-05-20T10:40:13.696Z,15.73
2023-05-20T10:42:41.403Z,14.57
2023-05-20T10:45:09.400Z,14.65
2023-05-20T10:47:36.841Z,14.82
2023-05-20T10:50:06.136Z,14.13
2023-05-20T10:52:39.025Z,14.35
2023-05-20T10:55:06.487Z,14.30
2023-05-20T10:57:34.649Z,15.00
2023-05-20T11:00:02.257Z,15.52
2023-05-20T11:02:29.351Z,16.58
2023-05-20T11:05:01.864Z,16.45
2023-05-20T11:07:29.850Z,16.75
2023-05-20T11:09:57.588Z,16.33
2023-05-20T11:12:26.134Z,15.68
2023-05-20T11:14:53.968Z,16.40
2023-05-20T11:17:20.967Z,18.75
2023-05-20T11:19:49.770Z,18.58
2023-05-20T11:22:16.601Z,18.08
2023-05-20T11:24:43.698Z,18.92
2023-05-20T11:27:10.540Z,19.48
2023-05-20T11:29:38.006Z,17.70
2023-05-20T11:32:05.159Z,18.92
2023-05-20T11:34:39.447Z,18.83
2023-05-20T11:37:13.434Z,18.65
2023-05-20T11:39:42.644Z,18.27
2023-05-20T11:42:09.471Z,19.55
2023-05-20T11:44:36.314Z,18.42
2023-05-20T11:47:04.216Z,18.85
2023-05-20T11:49:39.652Z,18.85
2023-05-20T11:52:09.332Z,19.42
2023-05-20T11:54:36.606Z,18.60
2023-05-20T11:57:05.661Z,17.38
2023-05-20T11:59:33.925Z,20.10
2023-05-20T12:02:00.952Z,18.85
2023-05-20T12:04:27.776Z,20.08
2023-05-20T12:06:55.884Z,19.88
2023-05-20T12:09:22.759Z,19.30
2023-05-20T12:11:49.690Z,20.00
2023-05-20T12:14:16.573Z,18.35
2023-05-20T12:16:43.916Z,18.20
2023-05-20T12:19:10.724Z,18.40
2023-05-20T12:21:37.503Z,18.70
2023-05-20T12:24:07.298Z,18.55
2023-05-20T12:26:35.614Z,17.92
2023-05-20T12:29:02.475Z,17.92
2023-05-20T12:31:30.027Z,17.52
2023-05-20T12:33:58.568Z,16.48
2023-05-20T12:36:25.696Z,18.42
2023-05-20T12:38:52.504Z,17.55
2023-05-20T12:41:19.225Z,18.05
2023-05-20T12:43:46.000Z,15.85
2023-05-20T12:46:15.034Z,17.38
2023-05-20T12:48:42.772Z,17.40
2023-05-20T12:51:09.729Z,17.13
2023-05-20T12:53:36.403Z,16.08
2023-05-20T12:56:03.840Z,18.02
2023-05-20T12:58:32.797Z,17.02
2023-05-20T13:01:00.029Z,17.50
2023-05-20T13:03:26.903Z,16.50
2023-05-20T13:05:54.315Z,16.42
2023-05-20T13:08:21.099Z,16.30
2023-05-20T13:10:47.838Z,16.25
2023-05-20T13:13:21.374Z,16.02
2023-05-20T13:15:51.861Z,17.92
2023-05-20T13:18:19.410Z,16.38
2023-05-20T13:20:46.782Z,17.90
2023-05-20T13:23:13.528Z,20.45
2023-05-20T13:25:40.334Z,18.77
2023-05-20T13:28:07.722Z,20.60
2023-05-20T13:30:34.783Z,18.02
2023-05-20T13:33:01.840Z,18.33
2023-05-20T13:35:28.697Z,17.88
2023-05-20T13:37:55.489Z,17.75
2023-05-20T13:40:22.677Z,16.50
2023-05-20T13:42:49.438Z,17.67
2023-05-20T13:45:16.453Z,16.85
2023-05-20T13:47:43.200Z,16.92
2023-05-20T13:50:11.007Z,17.48
2023-05-20T13:52:37.736Z,16.05
2023-05-20T13:55:05.183Z,15.65
2023-05-20T13:57:32.298Z,14.90
2023-05-20T13:59:59.023Z,14.40
2023-05-20T14:02:25.907Z,13.77
2023-05-20T14:04:52.775Z,15.40
2023-05-20T14:07:19.515Z,16.10
2023-05-20T14:09:46.261Z,15.80
2023-05-20T14:12:13.048Z,17.13
2023-05-20T14:14:39.739Z,16.77
2023-05-20T14:17:06.503Z,15.55
2023-05-20T14:19:35.220Z,15.35
2023-05-20T14:22:03.949Z,17.92
2023-05-20T14:24:30.771Z,13.83
2023-05-20T14:26:58.392Z,14.02
2023-05-20T14:29:25.133Z,13.40
2023-05-20T14:31:51.901Z,13.88
2023-05-20T14:34:18.707Z,13.15
2023-05-20T14:36:45.471Z,13.63
2023-05-20T14:39:12.254Z,14.10
2023-05-20T14:41:39.785Z,13.43
2023-05-20T14:44:06.786Z,13.73
2023-05-20T14:46:33.706Z,13.05
2023-05-20T14:49:00.591Z,13.02
2023-05-20T14:51:27.485Z,13.32
2023-05-20T14:53:54.274Z,13.13
2023-05-20T14:56:21.675Z,13.35
2023-05-20T14:58:48.450Z,11.32
2023-05-20T15:01:15.395Z,12.20
2023-05-20T15:03:42.353Z,11.52
2023-05-20T15:06:09.070Z,11.77
2023-05-20T15:08:35.837Z,11.02
2023-05-20T15:11:02.678Z,10.80
2023-05-20T15:13:29.406Z,12.07
2023-05-20T15:15:56.702Z,10.65
2023-05-20T15:18:23.445Z,11.27
2023-05-20T15:20:51.058Z,11.27
2023-05-20T15:23:20.390Z,12.13
2023-05-20T15:25:48.693Z,11.18
2023-05-20T15:28:19.662Z,11.27
2023-05-20T15:30:51.295Z,11.00
2023-05-20T15:33:18.069Z,12.18
2023-05-20T15:35:44.963Z,12.70
2023-05-20T15:38:11.714Z,11.70
2023-05-20T15:40:40.740Z,13.90
2023-05-20T15:43:07.750Z,11.35
2023-05-20T15:45:34.564Z,11.65
2023-05-20T15:48:02.624Z,11.63
2023-05-20T15:50:30.166Z,12.38
2023-05-20T15:52:57.016Z,11.82
2023-05-20T15:55:23.866Z,12.05
2023-05-20T15:57:51.473Z,11.65
2023-05-20T16:00:20.479Z,11.88
2023-05-20T16:02:47.466Z,11.02
2023-05-20T16:05:14.892Z,12.32
2023-05-20T16:07:42.596Z,12.20
2023-05-20T16:10:10.835Z,11.90
2023-05-20T16:12:39.354Z,11.07
2023-05-20T16:15:06.726Z,12.10
2023-05-20T16:17:33.546Z,11.30
2023-05-20T16:20:02.848Z,12.98
2023-05-20T16:22:29.907Z,12.77
2023-05-20T16:24:56.728Z,12.05
2023-05-20T16:27:23.556Z,11.23
2023-05-20T16:29:51.234Z,11.02
2023-05-20T16:32:18.110Z,13.30
2023-05-20T16:34:45.009Z,10.95
2023-05-20T16:37:11.831Z,11.95
2023-05-20T16:39:38.656Z,12.35
2023-05-20T16:42:06.174Z,12.38
2023-05-20T16:44:38.564Z,12.63
2023-05-20T16:47:06.777Z,12.30
2023-05-20T16:49:33.864Z,12.82
2023-05-20T16:52:00.719Z,12.32
2023-05-20T16:54:28.265Z,12.30
2023-05-20T16:56:55.041Z,12.75
2023-05-20T16:59:22.054Z,12.02
2023-05-20T17:01:48.750Z,12.68
2023-05-20T17:04:16.354Z,12.77
2023-05-20T17:06:44.159Z,13.10
2023-05-20T17:09:10.909Z,13.35
2023-05-20T17:11:37.645Z,12.90
2023-05-20T17:14:05.267Z,13.55
2023-05-20T17:16:32.243Z,14.02
2023-05-20T17:18:59.195Z,12.75
2023-05-20T17:21:26.008Z,13.82
2023-05-20T17:23:52.841Z,12.15
2023-05-20T17:26:20.272Z,12.38
2023-05-20T17:28:46.977Z,12.95
2023-05-20T17:31:13.828Z,11.95
2023-05-20T17:33:40.811Z,13.35
2023-05-20T17:36:07.793Z,13.68
2023-05-20T17:38:34.611Z,14.50
2023-05-20T17:41:01.693Z,12.82
2023-05-20T17:43:28.467Z,12.63
2023-05-20T17:45:55.198Z,13.40
2023-05-20T17:48:22.006Z,13.05
2023-05-20T17:50:49.090Z,14.27
2023-05-20T17:53:15.904Z,13.30
2023-05-20T17:55:44.106Z,12.82
2023-05-20T17:58:11.741Z,13.27
2023-05-20T18:00:42.602Z,13.95
2023-05-20T18:03:10.361Z,14.10
2023-05-20T18:05:37.226Z,13.32
2023-05-20T18:08:04.128Z,14.45
2023-05-20T18:10:30.875Z,13.50
2023-05-20T18:12:57.612Z,14.98
2023-05-20T18:15:24.430Z,13.98
2023-05-20T18:17:51.298Z,14.20
2023-05-20T18:20:18.105Z,13.20
2023-05-20T18:22:47.772Z,13.93
2023-05-20T18:25:17.855Z,15.10
2023-05-20T18:27:44.651Z,14.63
2023-05-20T18:30:11.560Z,14.73
2023-05-20T18:32:39.247Z,14.25
2023-05-20T18:35:06.928Z,13.52
2023-05-20T18:37:33.792Z,14.05
2023-05-20T18:40:00.567Z,14.77
2023-05-20T18:42:27.382Z,13.82
2023-05-20T18:44:54.213Z,14.10
2023-05-20T18:47:21.014Z,14.18
2023-05-20T18:49:47.761Z,13.38
2023-05-20T18:52:14.914Z,13.65
2023-05-20T18:54:42.958Z,14.48
2023-05-20T18:57:09.880Z,14.85
2023-05-20T18:59:37.386Z,13.50
2023-05-20T19:02:05.187Z,13.65
2023-05-20T19:04:32.000Z,14.23
2023-05-20T19:06:59.292Z,13.43
2023-05-20T19:09:26.098Z,13.68
2023-05-20T19:11:57.523Z,12.50
2023-05-20T19:14:24.236Z,14.05
2023-05-20T19:16:53.165Z,13.30
2023-05-20T19:19:20.084Z,13.40
2023-05-20T19:21:46.915Z,13.60
2023-05-20T19:24:13.731Z,12.68
2023-05-20T19:26:40.617Z,12.63
2023-05-20T19:29:09.145Z,12.32
2023-05-20T19:31:41.540Z,12.50
2023-05-20T19:34:08.350Z,12.18
2023-05-20T19:36:35.894Z,11.30
2023-05-20T19:39:03.654Z,11.65
2023-05-20T19:41:31.059Z,11.10
2023-05-20T19:43:58.075Z,11.70
2023-05-20T19:46:25.069Z,11.73
2023-05-20T19:48:51.800Z,11.25
2023-05-20T19:51:18.597Z,11.00
2023-05-20T19:53:46.442Z,11.23
2023-05-20T19:56:13.287Z,10.38
2023-05-20T19:58:40.047Z,11.90
2023-05-20T20:01:08.384Z,11.23
2023-05-20T20:03:35.210Z,11.65
2023-05-20T20:06:02.477Z,11.40
2023-05-20T20:08:29.361Z,11.25
2023-05-20T20:10:56.231Z,12.07
2023-05-20T20:13:23.095Z,11.02
2023-05-20T20:15:49.918Z,12.02
2023-05-20T20:18:16.912Z,11.55
2023-05-20T20:20:43.624Z,11.10
2023-05-20T20:23:10.526Z,11.38
2023-05-20T20:25:39.071Z,10.48
2023-05-20T20:28:07.330Z,11.57
2023-05-20T20:30:35.389Z,10.20
2023-05-20T20:33:07.144Z,10.55
2023-05-20T20:35:34.421Z,11.45
2023-05-20T20:38:08.506Z,10.95
2023-05-20T20:40:39.651Z,10.55
2023-05-20T20:43:08.714Z,11.45
2023-05-20T20:45:38.242Z,12.02
2023-05-20T20:48:08.150Z,11.40
2023-05-20T20:50:36.574Z,12.07
2023-05-20T20:53:03.557Z,11.73
2023-05-20T20:55:31.554Z,10.90
2023-05-20T20:58:02.954Z,12.82
2023-05-20T21:00:29.891Z,13.07
2023-05-20T21:02:56.753Z,12.45
2023-05-20T21:05:26.772Z,13.70
2023-05-20T21:07:58.514Z,12.45
2023-05-20T21:10:29.843Z,12.90
2023-05-20T21:12:59.918Z,13.30
2023-05-20T21:15:27.633Z,13.32
2023-05-20T21:17:54.673Z,13.40
2023-05-20T21:20:21.996Z,13.93
2023-05-20T21:22:49.217Z,13.77
2023-05-20T21:25:16.019Z,12.35
2023-05-20T21:27:43.880Z,11.50
2023-05-20T21:30:12.534Z,12.27
2023-05-20T21:32:39.455Z,12.15
2023-05-20T21:35:06.975Z,12.68
2023-05-20T21:37:33.720Z,11.75
2023-05-20T21:40:01.396Z,12.95
2023-05-20T21:42:30.331Z,12.48
2023-05-20T21:44:57.101Z,12.00
2023-05-20T21:47:23.890Z,12.75
2023-05-20T21:49:50.646Z,12.10
2023-05-20T21:52:17.380Z,12.13
2023-05-20T21:54:44.268Z,12.73
2023-05-20T21:57:10.992Z,12.90
2023-05-20T21:59:39.979Z,12.45
2023-05-20T22:02:06.843Z,13.80
2023-05-20T22:04:34.980Z,12.65
2023-05-20T22:07:01.887Z,12.68
2023-05-20T22:09:31.180Z,13.18
2023-05-20T22:11:57.958Z,13.00
2023-05-20T22:14:24.727Z,12.43
2023-05-20T22:16:54.366Z,13.80
2023-05-20T22:19:21.889Z,13.73
2023-05-20T22:21:50.550Z,12.85
2023-05-20T22:24:18.341Z,14.15
2023-05-20T22:26:47.048Z,13.43
2023-05-20T22:29:13.805Z,14.13
2023-05-20T22:31:43.373Z,13.40
2023-05-20T22:34:10.405Z,13.10
2023-05-20T22:36:37.708Z,13.57
2023-05-20T22:39:05.053Z,14.43
2023-05-20T22:41:31.784Z,13.52
2023-05-20T22:43:59.003Z,13.75
2023-05-20T22:46:26.241Z,13.65
2023-05-20T22:48:53.187Z,13.93
2023-05-20T22:51:22.185Z,13.13
2023-05-20T22:53:49.538Z,14.40
2023-05-20T22:56:16.440Z,12.68
2023-05-20T22:58:43.942Z,12.82
2023-05-20T23:01:12.248Z,12.60
2023-05-20T23:03:40.299Z,13.88
2023-05-20T23:06:07.126Z,13.80
2023-05-20T23:08:35.994Z,13.43
2023-05-20T23:11:02.724Z,14.07
2023-05-20T23:13:30.825Z,13.40
2023-05-20T23:15:57.953Z,14.23
2023-05-20T23:18:24.694Z,16.48
2023-05-20T23:20:51.878Z,14.73
2023-05-20T23:23:22.822Z,14.40
2023-05-20T23:25:57.527Z,14.32
2023-05-20T23:28:24.303Z,14.77
2023-05-20T23:30:51.462Z,13.73
2023-05-20T23:33:24.310Z,13.10
2023-05-20T23:35:52.905Z,13.48
2023-05-20T23:38:20.672Z,13.95
2023-05-20T23:40:48.220Z,13.13
2023-05-20T23:43:15.265Z,13.55
2023-05-20T23:45:42.253Z,13.27
2023-05-20T23:48:13.674Z,14.02
2023-05-20T23:50:41.193Z,12.63
2023-05-20T23:53:08.876Z,13.68
2023-05-20T23:55:36.981Z,13.02
2023-05-20T23:58:03.887Z,12.15
